createdAt,value
2022-08-20T00:02:14.277Z,4.03
2022-08-20T00:04:42.255Z,4.47
2022-08-20T00:07:10.122Z,3.80
2022-08-20T00:09:38.030Z,3.83
2022-08-20T00:12:07.004Z,4.32
2022-08-20T00:14:35.289Z,3.83
2022-08-20T00:17:05.066Z,3.85
2022-08-20T00:19:32.835Z,4.13
2022-08-20T00:22:00.664Z,4.03
2022-08-20T00:24:28.336Z,3.95
2022-08-20T00:26:56.060Z,4.10
2022-08-20T00:29:23.778Z,4.30
2022-08-20T00:31:51.620Z,4.83
2022-08-20T00:34:19.448Z,4.20
2022-08-20T00:36:47.367Z,3.92
2022-08-20T00:39:15.042Z,4.40
2022-08-20T00:41:42.716Z,4.07
2022-08-20T00:44:18.696Z,4.03
2022-08-20T00:46:47.206Z,4.30
2022-08-20T00:49:28.056Z,4.10
2022-08-20T00:51:58.746Z,3.88
2022-08-20T00:54:32.468Z,4.20
2022-08-20T00:57:05.811Z,4.15
2022-08-20T00:59:37.332Z,4.20
2022-08-20T01:02:08.302Z,4.45
2022-08-20T01:04:36.952Z,3.97
2022-08-20T01:07:06.240Z,4.40
2022-08-20T01:09:58.249Z,4.20
2022-08-20T01:12:24.124Z,3.65
2022-08-20T01:14:52.631Z,4.10
2022-08-20T01:17:24.253Z,4.32
2022-08-20T01:19:58.433Z,4.45
2022-08-20T01:22:54.190Z,3.88
2022-08-20T01:26:11.060Z,3.97
2022-08-20T01:28:47.122Z,4.07
2022-08-20T01:31:24.322Z,4.35
2022-08-20T01:33:53.728Z,3.75
2022-08-20T01:36:26.152Z,4.07
2022-08-20T01:38:54.570Z,3.97
2022-08-20T01:43:58.542Z,3.80
2022-08-20T01:46:29.634Z,4.10
2022-08-20T01:48:57.743Z,4.00
2022-08-20T01:51:29.155Z,4.22
2022-08-20T01:54:02.043Z,3.70
2022-08-20T01:56:31.990Z,4.10
2022-08-20T01:59:02.163Z,3.97
2022-08-20T02:01:46.142Z,4.10
2022-08-20T02:04:17.414Z,4.32
2022-08-20T02:06:56.209Z,3.95
2022-08-20T02:09:39.487Z,4.07
2022-08-20T02:12:09.914Z,4.28
2022-08-20T02:14:44.443Z,4.50
2022-08-20T02:17:13.138Z,4.07
2022-08-20T02:22:22.538Z,3.90
2022-08-20T02:24:50.118Z,4.18
2022-08-20T02:27:19.016Z,4.50
2022-08-20T02:29:46.870Z,3.70
2022-08-20T02:32:32.668Z,3.90
2022-08-20T02:35:04.552Z,4.43
2022-08-20T02:37:32.244Z,4.43
2022-08-20T02:39:59.840Z,4.10
2022-08-20T02:42:28.176Z,4.10
2022-08-20T02:44:58.626Z,4.18
2022-08-20T02:47:27.795Z,4.18
2022-08-20T02:49:55.502Z,4.15
2022-08-20T02:52:23.028Z,4.40
2022-08-20T02:54:50.608Z,3.85
2022-08-20T02:57:23.065Z,4.32
2022-08-20T02:59:54.120Z,4.22
2022-08-20T03:02:22.117Z,4.45
2022-08-20T03:04:49.793Z,4.38
2022-08-20T03:07:17.868Z,4.38
2022-08-20T03:09:45.438Z,3.97
2022-08-20T03:12:13.311Z,3.92
2022-08-20T03:14:40.875Z,3.65
2022-08-20T03:17:08.608Z,4.18
2022-08-20T03:19:36.143Z,4.25
2022-08-20T03:22:04.134Z,4.07
2022-08-20T03:24:31.862Z,4.43
2022-08-20T03:26:59.551Z,4.43
2022-08-20T03:29:27.288Z,4.40
2022-08-20T03:31:55.031Z,4.30
2022-08-20T03:34:22.794Z,4.40
2022-08-20T03:36:50.281Z,4.22
2022-08-20T03:39:17.820Z,4.22
2022-08-20T03:41:45.357Z,4.10
2022-08-20T03:44:12.873Z,4.13
2022-08-20T03:46:40.652Z,4.10
2022-08-20T03:49:08.468Z,4.50
2022-08-20T03:51:56.284Z,4.35
2022-08-20T03:54:23.828Z,4.13
2022-08-20T03:56:54.986Z,4.82
2022-08-20T03:59:22.816Z,4.35
2022-08-20T04:01:50.546Z,4.47
2022-08-20T04:04:18.181Z,4.45
2022-08-20T04:06:47.540Z,4.45
2022-08-20T04:09:15.797Z,4.00
2022-08-20T04:11:43.973Z,4.75
2022-08-20T04:14:12.910Z,4.22
2022-08-20T04:16:47.085Z,4.40
2022-08-20T04:19:17.005Z,4.40
2022-08-20T04:21:44.657Z,4.53
2022-08-20T04:24:22.683Z,4.30
2022-08-20T04:27:04.469Z,4.63
2022-08-20T04:29:35.358Z,4.40
2022-08-20T04:32:06.764Z,4.90
2022-08-20T04:34:35.167Z,4.20
2022-08-20T04:37:03.489Z,4.50
2022-08-20T04:39:31.514Z,4.55
2022-08-20T04:41:59.884Z,4.88
2022-08-20T04:44:27.892Z,4.18
2022-08-20T04:46:55.608Z,4.70
2022-08-20T04:49:26.557Z,4.22
2022-08-20T04:51:54.883Z,4.32
2022-08-20T04:54:22.404Z,4.43
2022-08-20T04:56:50.084Z,4.65
2022-08-20T04:59:17.616Z,4.72
2022-08-20T05:01:45.654Z,5.13
2022-08-20T05:04:13.205Z,4.95
2022-08-20T05:06:41.324Z,5.00
2022-08-20T05:09:08.910Z,4.70
2022-08-20T05:11:37.026Z,5.00
2022-08-20T05:14:08.977Z,4.78
2022-08-20T05:16:40.917Z,4.40
2022-08-20T05:19:12.449Z,4.50
2022-08-20T05:21:40.710Z,4.63
2022-08-20T05:24:10.286Z,4.65
2022-08-20T05:26:38.202Z,4.53
2022-08-20T05:29:07.021Z,4.50
2022-08-20T05:31:35.514Z,4.70
2022-08-20T05:34:09.769Z,4.68
2022-08-20T05:36:41.022Z,4.15
2022-08-20T05:39:10.502Z,4.18
2022-08-20T05:41:39.959Z,5.50
2022-08-20T05:44:15.125Z,4.10
2022-08-20T05:46:44.469Z,4.60
2022-08-20T05:49:15.589Z,4.20
2022-08-20T05:51:44.014Z,4.43
2022-08-20T05:54:14.868Z,4.40
2022-08-20T05:56:42.783Z,4.07
2022-08-20T05:59:11.014Z,4.32
2022-08-20T06:01:40.843Z,4.40
2022-08-20T06:04:24.999Z,3.78
2022-08-20T06:07:02.445Z,4.00
2022-08-20T06:09:32.678Z,4.05
2022-08-20T06:12:06.567Z,4.47
2022-08-20T06:14:34.205Z,4.22
2022-08-20T06:17:15.220Z,4.60
2022-08-20T06:19:45.635Z,4.18
2022-08-20T06:22:18.683Z,4.15
2022-08-20T06:24:52.903Z,4.13
2022-08-20T06:27:20.963Z,3.95
2022-08-20T06:29:49.291Z,4.07
2022-08-20T06:32:17.339Z,4.05
2022-08-20T06:34:49.909Z,3.85
2022-08-20T06:37:30.822Z,4.00
2022-08-20T06:40:10.476Z,4.10
2022-08-20T06:42:48.238Z,3.67
2022-08-20T06:45:24.585Z,4.07
2022-08-20T06:47:55.756Z,3.90
2022-08-20T06:50:30.578Z,4.00
2022-08-20T06:52:59.765Z,4.10
2022-08-20T06:55:27.832Z,4.07
2022-08-20T06:58:01.429Z,3.83
2022-08-20T07:00:31.806Z,4.03
2022-08-20T07:03:01.199Z,3.90
2022-08-20T07:05:36.815Z,4.25
2022-08-20T07:08:06.561Z,3.80
2022-08-20T07:10:37.046Z,3.97
2022-08-20T07:13:07.239Z,3.97
2022-08-20T07:15:35.863Z,4.05
2022-08-20T07:18:05.312Z,4.03
2022-08-20T07:20:36.317Z,3.85
2022-08-20T07:23:04.254Z,3.80
2022-08-20T07:25:33.811Z,3.90
2022-08-20T07:28:05.389Z,3.65
2022-08-20T07:30:55.828Z,3.72
2022-08-20T07:33:25.620Z,4.13
2022-08-20T07:35:53.322Z,3.95
2022-08-20T07:38:26.725Z,3.47
2022-08-20T07:40:59.539Z,3.72
2022-08-20T07:43:28.423Z,3.35
2022-08-20T07:46:00.690Z,3.97
2022-08-20T07:48:32.600Z,3.60
2022-08-20T07:51:06.463Z,3.35
2022-08-20T07:53:37.093Z,3.92
2022-08-20T07:56:11.661Z,3.78
2022-08-20T07:58:50.103Z,3.53
2022-08-20T08:01:25.738Z,3.90
2022-08-20T08:03:53.936Z,4.20
2022-08-20T08:06:29.214Z,3.55
2022-08-20T08:09:04.509Z,3.70
2022-08-20T08:11:35.020Z,3.28
2022-08-20T08:14:06.387Z,3.75
2022-08-20T08:16:35.722Z,3.65
2022-08-20T08:19:06.707Z,3.90
2022-08-20T08:21:34.321Z,3.85
2022-08-20T08:24:02.723Z,3.92
2022-08-20T08:26:30.590Z,3.55
2022-08-20T08:28:58.642Z,3.88
2022-08-20T08:31:26.961Z,4.00
2022-08-20T08:33:55.688Z,3.90
2022-08-20T08:36:26.688Z,4.03
2022-08-20T08:38:56.656Z,4.10
2022-08-20T08:41:47.260Z,4.70
2022-08-20T08:44:23.550Z,4.45
2022-08-20T08:46:59.347Z,5.03
2022-08-20T08:49:38.049Z,5.07
2022-08-20T08:52:19.809Z,5.75
2022-08-20T08:54:51.525Z,5.85
2022-08-20T08:57:19.356Z,5.72
2022-08-20T09:00:04.917Z,5.78
2022-08-20T09:02:35.381Z,6.65
2022-08-20T09:05:13.500Z,6.40
2022-08-20T09:07:43.972Z,6.90
2022-08-20T09:10:11.558Z,7.05
2022-08-20T09:12:39.354Z,6.87
2022-08-20T09:15:09.095Z,7.22
2022-08-20T09:17:37.157Z,6.97
2022-08-20T09:20:05.643Z,6.90
2022-08-20T09:25:03.441Z,7.10
2022-08-20T09:27:32.133Z,6.60
2022-08-20T09:30:00.185Z,7.00
2022-08-20T09:32:27.890Z,6.82
2022-08-20T09:34:56.731Z,6.43
2022-08-20T09:37:26.293Z,6.28
2022-08-20T09:39:54.401Z,6.20
2022-08-20T09:42:28.207Z,6.15
2022-08-20T09:44:55.936Z,5.45
2022-08-20T09:47:23.723Z,5.60
2022-08-20T09:49:51.752Z,4.85
2022-08-20T09:52:26.328Z,5.60
2022-08-20T09:54:59.141Z,5.63
2022-08-20T09:57:29.654Z,5.97
2022-08-20T10:00:01.869Z,5.82
2022-08-20T10:02:29.838Z,6.38
2022-08-20T10:04:57.609Z,5.85
2022-08-20T10:07:25.876Z,6.38
2022-08-20T10:09:53.766Z,7.32
2022-08-20T10:12:21.463Z,6.00
2022-08-20T10:14:48.946Z,6.50
2022-08-20T10:17:16.615Z,6.53
2022-08-20T10:19:44.314Z,6.73
2022-08-20T10:22:12.077Z,6.37
2022-08-20T10:24:39.840Z,6.35
2022-08-20T10:27:07.447Z,5.80
2022-08-20T10:29:35.242Z,6.38
2022-08-20T10:32:12.455Z,6.90
2022-08-20T10:34:42.860Z,6.50
2022-08-20T10:37:15.589Z,5.93
2022-08-20T10:39:44.361Z,6.18
2022-08-20T10:42:12.156Z,6.53
2022-08-20T10:44:40.104Z,6.17
2022-08-20T10:47:32.213Z,5.50
2022-08-20T10:50:02.595Z,5.38
2022-08-20T10:52:30.347Z,4.60
2022-08-20T10:54:57.957Z,4.80
2022-08-20T10:57:28.821Z,4.27
2022-08-20T10:59:58.099Z,4.43
2022-08-20T11:02:28.015Z,4.47
2022-08-20T11:04:55.725Z,4.03
2022-08-20T11:07:56.508Z,4.70
2022-08-20T11:10:27.205Z,4.45
2022-08-20T11:12:55.382Z,4.93
2022-08-20T11:15:23.244Z,5.65
2022-08-20T11:17:51.147Z,5.07
2022-08-20T11:20:21.272Z,5.28
2022-08-20T11:22:48.861Z,5.35
2022-08-20T11:25:16.812Z,5.22
2022-08-20T11:27:47.373Z,4.97
2022-08-20T11:30:22.708Z,4.70
2022-08-20T11:32:50.392Z,5.28
2022-08-20T11:35:41.609Z,5.03
2022-08-20T11:38:06.479Z,5.72
2022-08-20T11:40:34.658Z,5.20
2022-08-20T11:43:18.300Z,5.43
2022-08-20T11:45:53.392Z,4.95
2022-08-20T11:48:21.275Z,5.10
2022-08-20T11:50:49.804Z,5.13
2022-08-20T11:53:17.481Z,4.78
2022-08-20T11:55:45.735Z,4.87
2022-08-20T11:58:13.354Z,4.70
2022-08-20T12:00:41.508Z,4.72
2022-08-20T12:03:10.250Z,4.43
2022-08-20T12:05:42.717Z,4.63
2022-08-20T12:08:25.086Z,3.83
2022-08-20T12:10:57.945Z,4.28
2022-08-20T12:13:45.076Z,4.00
2022-08-20T12:16:16.971Z,3.65
2022-08-20T12:18:45.272Z,3.97
2022-08-20T12:21:13.537Z,3.78
2022-08-20T12:23:41.370Z,3.53
2022-08-20T12:26:09.424Z,3.80
2022-08-20T12:28:37.624Z,2.95
2022-08-20T12:31:05.418Z,3.40
2022-08-20T12:33:33.029Z,3.40
2022-08-20T12:36:00.645Z,3.60
2022-08-20T12:38:28.219Z,3.50
2022-08-20T12:40:55.716Z,3.60
2022-08-20T12:43:25.128Z,3.85
2022-08-20T12:45:53.008Z,3.30
2022-08-20T12:48:21.298Z,3.33
2022-08-20T12:50:50.303Z,2.95
2022-08-20T12:53:18.609Z,2.83
2022-08-20T12:55:46.480Z,3.30
2022-08-20T12:58:14.123Z,2.92
2022-08-20T13:00:50.959Z,3.25
2022-08-20T13:03:20.318Z,2.88
2022-08-20T13:05:49.419Z,2.75
2022-08-20T13:08:19.332Z,2.88
2022-08-20T13:10:47.208Z,3.00
2022-08-20T13:13:20.049Z,2.60
2022-08-20T13:15:50.502Z,3.20
2022-08-20T13:18:18.574Z,2.67
2022-08-20T13:20:46.402Z,3.30
2022-08-20T13:23:13.989Z,2.55
2022-08-20T13:25:41.504Z,2.87
2022-08-20T13:28:09.148Z,2.70
2022-08-20T13:30:38.856Z,2.75
2022-08-20T13:33:06.513Z,3.20
2022-08-20T13:35:34.179Z,2.60
2022-08-20T13:38:01.873Z,2.73
2022-08-20T13:40:29.677Z,2.83
2022-08-20T13:42:57.397Z,2.78
2022-08-20T13:45:25.400Z,3.13
2022-08-20T13:47:54.995Z,2.90
2022-08-20T13:50:25.436Z,2.78
2022-08-20T13:52:54.588Z,2.83
2022-08-20T13:55:26.654Z,2.63
2022-08-20T13:57:56.952Z,2.97
2022-08-20T14:00:32.314Z,2.85
2022-08-20T14:03:02.044Z,2.80
2022-08-20T14:05:31.001Z,2.97
2022-08-20T14:08:10.818Z,2.47
2022-08-20T14:10:39.274Z,2.80
2022-08-20T14:13:15.148Z,2.70
2022-08-20T14:15:44.770Z,2.47
2022-08-20T14:18:13.377Z,2.90
2022-08-20T14:20:45.666Z,2.90
2022-08-20T14:23:13.992Z,2.70
2022-08-20T14:25:46.266Z,3.05
2022-08-20T14:28:20.001Z,3.03
2022-08-20T14:30:53.092Z,3.15
2022-08-20T14:33:23.045Z,3.15
2022-08-20T14:35:51.161Z,3.60
2022-08-20T14:38:18.837Z,3.60
2022-08-20T14:40:47.451Z,4.15
2022-08-20T14:45:42.723Z,3.40
2022-08-20T14:48:10.604Z,3.40
2022-08-20T14:50:38.609Z,3.20
2022-08-20T14:53:07.009Z,3.45
2022-08-20T14:55:37.627Z,3.33
2022-08-20T14:58:10.679Z,3.83
2022-08-20T15:00:38.592Z,3.47
2022-08-20T15:03:06.346Z,3.60
2022-08-20T15:05:35.190Z,3.17
2022-08-20T15:08:09.020Z,3.58
2022-08-20T15:10:39.260Z,3.60
2022-08-20T15:13:07.307Z,3.67
2022-08-20T15:15:35.444Z,3.40
2022-08-20T15:18:03.828Z,3.53
2022-08-20T15:20:33.341Z,3.60
2022-08-20T15:23:01.771Z,4.03
2022-08-20T15:25:36.411Z,4.57
2022-08-20T15:28:09.944Z,3.97
2022-08-20T15:30:40.250Z,3.90
2022-08-20T15:33:09.466Z,3.38
2022-08-20T15:35:37.068Z,4.30
2022-08-20T15:38:04.815Z,3.53
2022-08-20T15:40:33.786Z,4.40
2022-08-20T15:43:04.128Z,3.88
2022-08-20T15:45:32.333Z,3.53
2022-08-20T15:48:22.827Z,4.28
2022-08-20T15:51:10.444Z,3.95
2022-08-20T15:54:06.058Z,4.07
2022-08-20T15:56:48.863Z,4.15
2022-08-20T15:59:19.342Z,4.13
2022-08-20T16:01:55.557Z,3.45
2022-08-20T16:04:52.232Z,4.32
2022-08-20T16:07:29.674Z,4.03
2022-08-20T16:10:35.812Z,4.47
2022-08-20T16:13:09.764Z,4.18
2022-08-20T16:15:44.220Z,4.25
2022-08-20T16:18:21.274Z,3.95
2022-08-20T16:20:52.011Z,4.55
2022-08-20T16:23:28.091Z,4.07
2022-08-20T16:26:04.599Z,3.90
2022-08-20T16:28:53.601Z,4.20
2022-08-20T16:31:28.210Z,3.70
2022-08-20T16:34:32.390Z,3.88
2022-08-20T16:37:26.932Z,5.13
2022-08-20T16:40:16.847Z,3.97
2022-08-20T16:42:48.333Z,4.15
2022-08-20T16:45:26.336Z,4.20
2022-08-20T16:47:57.330Z,4.00
2022-08-20T16:50:33.936Z,4.10
2022-08-20T16:53:01.638Z,4.45
2022-08-20T16:55:29.305Z,4.40
2022-08-20T16:57:57.172Z,4.70
2022-08-20T17:00:29.393Z,4.40
2022-08-20T17:03:04.857Z,4.20
2022-08-20T17:05:56.118Z,4.63
2022-08-20T17:08:28.535Z,4.07
2022-08-20T17:11:11.690Z,3.60
2022-08-20T17:13:44.445Z,4.18
2022-08-20T17:16:14.759Z,3.75
2022-08-20T17:18:45.220Z,3.80
2022-08-20T17:21:15.323Z,4.10
2022-08-20T17:23:56.247Z,3.97
2022-08-20T17:26:46.605Z,4.93
2022-08-20T17:29:36.445Z,4.05
2022-08-20T17:32:26.624Z,4.80
2022-08-20T17:34:59.535Z,4.40
2022-08-20T17:37:40.703Z,4.07
2022-08-20T17:40:18.265Z,4.90
2022-08-20T17:43:01.369Z,4.13
2022-08-20T17:45:40.248Z,4.43
2022-08-20T17:48:14.143Z,4.65
2022-08-20T17:50:43.291Z,4.50
2022-08-20T17:53:35.990Z,4.05
2022-08-20T17:56:13.731Z,4.88
2022-08-20T17:58:54.136Z,4.43
2022-08-20T18:01:22.479Z,5.15
2022-08-20T18:03:51.849Z,4.18
2022-08-20T18:06:28.503Z,4.88
2022-08-20T18:09:10.251Z,4.05
2022-08-20T18:11:58.055Z,4.90
2022-08-20T18:14:52.074Z,4.03
2022-08-20T18:17:53.789Z,3.95
2022-08-20T18:20:24.293Z,4.63
2022-08-20T18:22:57.656Z,4.70
2022-08-20T18:25:40.180Z,4.47
2022-08-20T18:28:25.373Z,4.00
2022-08-20T18:30:58.247Z,4.38
2022-08-20T18:33:42.467Z,5.78
2022-08-20T18:36:22.636Z,6.47
2022-08-20T18:39:05.160Z,4.70
2022-08-20T18:41:55.039Z,5.13
2022-08-20T18:44:33.955Z,4.65
2022-08-20T18:47:07.081Z,5.30
2022-08-20T18:49:39.703Z,4.82
2022-08-20T18:52:29.199Z,4.35
2022-08-20T18:55:02.858Z,4.28
2022-08-20T18:57:40.871Z,4.22
2022-08-20T19:00:14.611Z,4.70
2022-08-20T19:03:16.157Z,4.40
2022-08-20T19:05:46.641Z,4.50
2022-08-20T19:08:21.042Z,4.13
2022-08-20T19:11:01.555Z,4.47
2022-08-20T19:14:08.983Z,4.90
2022-08-20T19:16:45.201Z,4.38
2022-08-20T19:19:20.985Z,4.55
2022-08-20T19:21:49.525Z,4.30
2022-08-20T19:24:24.393Z,4.07
2022-08-20T19:26:58.703Z,4.75
2022-08-20T19:29:32.867Z,4.72
2022-08-20T19:32:04.409Z,4.38
2022-08-20T19:34:32.599Z,4.20
2022-08-20T19:37:27.632Z,4.65
2022-08-20T19:39:57.233Z,4.85
2022-08-20T19:42:31.329Z,3.95
2022-08-20T19:45:06.245Z,4.18
2022-08-20T19:47:37.735Z,4.45
2022-08-20T19:50:21.941Z,3.85
2022-08-20T19:53:11.847Z,4.65
2022-08-20T19:55:40.897Z,4.47
2022-08-20T19:58:26.060Z,4.85
2022-08-20T20:00:55.633Z,4.35
2022-08-20T20:03:29.079Z,4.13
2022-08-20T20:06:02.749Z,4.63
2022-08-20T20:08:57.627Z,4.28
2022-08-20T20:11:57.391Z,4.45
2022-08-20T20:14:30.102Z,4.13
2022-08-20T20:16:58.664Z,4.55
2022-08-20T20:19:27.793Z,4.20
2022-08-20T20:22:24.148Z,4.38
2022-08-20T20:25:05.051Z,3.88
2022-08-20T20:27:34.817Z,4.03
2022-08-20T20:30:10.946Z,4.10
2022-08-20T20:32:42.014Z,4.03
2022-08-20T20:35:09.775Z,4.53
2022-08-20T20:37:50.487Z,4.20
2022-08-20T20:40:26.858Z,3.92
2022-08-20T20:43:06.490Z,4.28
2022-08-20T20:45:38.068Z,4.50
2022-08-20T20:48:19.649Z,4.22
2022-08-20T20:50:48.621Z,4.65
2022-08-20T20:53:51.544Z,4.55
2022-08-20T20:56:28.748Z,3.83
2022-08-20T20:58:57.034Z,4.15
2022-08-20T21:01:28.900Z,3.85
2022-08-20T21:04:12.916Z,4.70
2022-08-20T21:06:40.624Z,4.03
2022-08-20T21:09:08.944Z,4.50
2022-08-20T21:11:36.500Z,4.03
2022-08-20T21:14:04.085Z,4.13
2022-08-20T21:16:31.640Z,4.82
2022-08-20T21:18:59.341Z,3.90
2022-08-20T21:21:26.812Z,4.20
2022-08-20T21:23:54.386Z,4.28
2022-08-20T21:26:22.302Z,3.92
2022-08-20T21:28:49.918Z,4.40
2022-08-20T21:31:17.423Z,3.85
2022-08-20T21:33:45.324Z,4.40
2022-08-20T21:36:15.312Z,4.30
2022-08-20T21:38:43.116Z,4.28
2022-08-20T21:41:10.847Z,3.90
2022-08-20T21:43:40.691Z,4.13
2022-08-20T21:46:12.839Z,4.00
2022-08-20T21:48:41.726Z,4.32
2022-08-20T21:51:10.897Z,3.97
2022-08-20T21:53:38.578Z,4.20
2022-08-20T21:56:06.404Z,4.13
2022-08-20T21:58:34.229Z,4.63
2022-08-20T22:01:05.989Z,3.80
2022-08-20T22:03:38.854Z,4.40
2022-08-20T22:06:12.505Z,3.83
2022-08-20T22:08:40.644Z,4.57
2022-08-20T22:11:09.965Z,4.47
2022-08-20T22:13:37.926Z,4.35
2022-08-20T22:16:18.347Z,4.63
2022-08-20T22:18:47.269Z,4.35
2022-08-20T22:21:27.706Z,4.13
2022-08-20T22:23:59.295Z,4.13
2022-08-20T22:26:27.359Z,4.45
2022-08-20T22:28:55.640Z,4.28
2022-08-20T22:31:28.554Z,4.38
2022-08-20T22:33:57.055Z,3.92
2022-08-20T22:36:25.495Z,4.50
2022-08-20T22:38:54.833Z,4.22
2022-08-20T22:41:23.046Z,4.30
2022-08-20T22:43:56.934Z,4.28
2022-08-20T22:46:34.445Z,4.13
2022-08-20T22:49:03.899Z,4.35
2022-08-20T22:51:34.796Z,4.18
2022-08-20T22:54:04.943Z,4.30
2022-08-20T22:56:32.815Z,3.90
2022-08-20T22:59:04.424Z,4.40
2022-08-20T23:01:32.691Z,4.30
2022-08-20T23:04:12.751Z,4.50
2022-08-20T23:06:41.167Z,4.30
2022-08-20T23:09:09.108Z,4.53
2022-08-20T23:11:41.627Z,5.05
2022-08-20T23:14:09.579Z,5.05
2022-08-20T23:16:41.333Z,4.80
2022-08-20T23:19:13.286Z,5.18
2022-08-20T23:21:40.817Z,5.15
2022-08-20T23:24:08.589Z,5.75
2022-08-20T23:26:44.704Z,5.30
2022-08-20T23:29:25.498Z,6.10
2022-08-20T23:31:57.509Z,5.35
2022-08-20T23:34:26.372Z,5.43
2022-08-20T23:36:56.322Z,6.03
2022-08-20T23:39:25.243Z,5.25
2022-08-20T23:44:25.990Z,6.55
2022-08-20T23:47:01.259Z,6.22
2022-08-20T23:49:29.657Z,5.88
2022-08-20T23:52:00.163Z,6.50
2022-08-20T23:54:30.345Z,6.78
2022-08-20T23:56:58.124Z,7.72
2022-08-20T23:59:26.305Z,7.20
